メインページ
METAR-TAF:

METAR-TAF

空港 :

Bellaire, ミシガン州, アメリカ合衆国

緯度: 44-59-18N, 経度: 085-11-54W, 海抜: 190m

現時点の気象観測

当レポートは20分前の12:00(UTC)に作成
無風
気温 24°C
湿度 78%
気圧 1012 hPa
視程: 16.1km
高度3400ftの千切れ雲あり
高度4200ftの千切れ雲あり
高度4900ftの曇り

METAR: KACB 161200Z AUTO 00000KT 10SM BKN034 BKN042 OVC049 24/20 A2989 RMK AO2 T02370204

時間: 08:20 (12:20 UTC)


TAF: 見つかりません

4,000以上の空港の気象観測と天気予報(METAR報とTAF報)

利用可能な観測所は地図上に黄色い丸と赤い丸で示す。

丸の上にカーソルを重ねると観測所名を参照できる。

次にクリックすると気象観測と天気予報を参照できる。

マップの切り替え:黒色「×」印の緑ボタンをクリックして拡大、「-」印の緑ボタンをクリックして縮小、緑色の三角印をクリックして隣りの地図に切り替え


METAR-TAF: